createdAt,value
2018-05-21T00:00:07.514Z,0.00
2018-05-21T00:01:07.437Z,0.00
2018-05-21T00:02:07.384Z,0.00
2018-05-21T00:03:07.314Z,0.00
2018-05-21T00:04:07.234Z,0.00
2018-05-21T00:05:07.156Z,0.00
2018-05-21T00:06:07.092Z,0.00
2018-05-21T00:07:07.016Z,0.00
2018-05-21T00:08:06.944Z,0.00
2018-05-21T00:09:06.872Z,0.00
2018-05-21T00:10:06.809Z,0.00
2018-05-21T00:11:06.719Z,0.00
2018-05-21T00:12:06.659Z,0.00
2018-05-21T00:13:06.579Z,0.00
2018-05-21T00:14:06.509Z,0.00
2018-05-21T00:15:06.442Z,0.00
2018-05-21T00:16:06.372Z,0.00
2018-05-21T00:17:06.299Z,0.00
2018-05-21T00:18:06.221Z,0.00
2018-05-21T00:19:06.155Z,0.00
2018-05-21T00:20:06.082Z,0.00
2018-05-21T00:21:06.012Z,0.00
2018-05-21T00:22:05.938Z,0.00
2018-05-21T00:23:05.904Z,0.00
2018-05-21T00:24:05.792Z,0.00
2018-05-21T00:25:05.728Z,0.00
2018-05-21T00:26:05.651Z,0.00
2018-05-21T00:27:05.577Z,0.00
2018-05-21T00:28:05.522Z,0.00
2018-05-21T00:29:05.434Z,0.00
2018-05-21T00:30:05.361Z,0.00
2018-05-21T00:31:05.381Z,0.00
2018-05-21T00:32:05.221Z,0.00
2018-05-21T00:33:05.149Z,0.00
2018-05-21T00:34:05.073Z,0.00
2018-05-21T00:35:05.003Z,0.00
2018-05-21T00:36:04.928Z,0.00
2018-05-21T00:37:04.857Z,0.00
2018-05-21T00:38:04.793Z,0.00
2018-05-21T00:39:04.714Z,0.00
2018-05-21T00:40:04.648Z,0.00
2018-05-21T00:41:04.572Z,0.00
2018-05-21T00:42:04.493Z,0.00
2018-05-21T00:43:04.432Z,0.00
2018-05-21T00:44:04.353Z,0.00
2018-05-21T00:45:04.285Z,0.00
2018-05-21T00:46:04.215Z,0.00
2018-05-21T00:47:04.140Z,0.00
2018-05-21T00:48:04.065Z,0.00
2018-05-21T00:49:03.996Z,0.00
2018-05-21T00:50:03.923Z,0.00
2018-05-21T00:51:03.847Z,0.00
2018-05-21T00:52:03.781Z,0.00
2018-05-21T00:53:03.707Z,0.00
2018-05-21T00:54:03.633Z,0.00
2018-05-21T00:55:03.563Z,0.00
2018-05-21T00:56:03.496Z,0.00
2018-05-21T00:57:03.421Z,0.00
2018-05-21T00:58:03.360Z,0.00
2018-05-21T00:59:03.276Z,0.00
2018-05-21T01:00:03.204Z,0.00
2018-05-21T01:01:03.164Z,0.00
2018-05-21T01:02:03.061Z,0.00
2018-05-21T01:03:03.000Z,0.00
2018-05-21T01:04:02.911Z,0.00
2018-05-21T01:05:02.850Z,0.00
2018-05-21T01:06:02.771Z,0.00
2018-05-21T01:07:02.709Z,0.00
2018-05-21T01:08:02.633Z,0.00
2018-05-21T01:09:02.548Z,0.00
2018-05-21T01:10:02.498Z,0.00
2018-05-21T01:11:02.415Z,0.00
2018-05-21T01:12:02.337Z,0.00
2018-05-21T01:13:02.304Z,0.00
2018-05-21T01:14:02.192Z,0.00
2018-05-21T01:15:02.124Z,0.00
2018-05-21T01:16:02.058Z,0.00
2018-05-21T01:17:01.980Z,0.00
2018-05-21T01:18:01.908Z,0.00
2018-05-21T01:19:01.835Z,0.00
2018-05-21T01:20:01.781Z,0.00
2018-05-21T01:21:01.711Z,0.00
2018-05-21T01:22:01.628Z,0.00
2018-05-21T01:23:01.551Z,0.00
2018-05-21T01:24:01.475Z,0.00
2018-05-21T01:25:01.407Z,0.00
2018-05-21T01:26:01.330Z,0.00
2018-05-21T01:27:01.262Z,0.00
2018-05-21T01:28:01.188Z,0.00
2018-05-21T01:29:01.116Z,0.00
2018-05-21T01:30:01.042Z,0.00
2018-05-21T01:31:00.974Z,0.00
2018-05-21T01:32:00.904Z,0.00
2018-05-21T01:33:00.829Z,0.00
2018-05-21T01:34:00.752Z,0.00
2018-05-21T01:35:00.686Z,0.00
2018-05-21T01:36:00.617Z,0.00
2018-05-21T01:37:00.539Z,0.00
2018-05-21T01:38:00.469Z,0.00
2018-05-21T01:39:00.396Z,0.00
2018-05-21T01:40:00.327Z,0.00
2018-05-21T01:41:00.269Z,0.00
2018-05-21T01:42:00.183Z,0.00
2018-05-21T01:43:00.109Z,0.00
2018-05-21T01:44:00.036Z,0.00
2018-05-21T01:44:59.974Z,0.00
2018-05-21T01:45:59.894Z,0.00
2018-05-21T01:46:59.820Z,0.00
2018-05-21T01:47:59.748Z,0.00
2018-05-21T01:48:59.693Z,0.00
2018-05-21T01:49:59.603Z,0.00
2018-05-21T01:50:59.530Z,0.00
2018-05-21T01:51:59.459Z,0.00
2018-05-21T01:52:59.397Z,0.00
2018-05-21T01:53:59.316Z,0.00
2018-05-21T01:54:59.260Z,0.00
2018-05-21T01:55:59.184Z,0.00
2018-05-21T01:56:59.105Z,0.00
2018-05-21T01:57:59.878Z,0.00
2018-05-21T01:58:58.960Z,0.00
2018-05-21T01:59:58.889Z,0.00
2018-05-21T02:00:58.813Z,0.00
2018-05-21T02:01:58.746Z,0.00
2018-05-21T02:02:58.671Z,0.00
2018-05-21T02:03:58.600Z,0.00
2018-05-21T02:04:58.546Z,0.00
2018-05-21T02:05:58.456Z,0.00
2018-05-21T02:06:58.390Z,0.00
2018-05-21T02:07:58.314Z,0.00
2018-05-21T02:08:58.241Z,0.00
2018-05-21T02:09:58.167Z,0.00
2018-05-21T02:10:58.105Z,0.00
2018-05-21T02:11:58.025Z,0.00
2018-05-21T02:12:57.953Z,0.00
2018-05-21T02:13:57.873Z,0.00
2018-05-21T02:14:57.811Z,0.00
2018-05-21T02:15:57.780Z,0.00
2018-05-21T02:16:57.696Z,0.00
2018-05-21T02:17:57.619Z,0.00
2018-05-21T02:18:57.563Z,0.00
2018-05-21T02:19:57.541Z,0.00
2018-05-21T02:20:57.376Z,0.00
2018-05-21T02:21:57.310Z,0.00
2018-05-21T02:22:57.228Z,0.00
2018-05-21T02:23:57.163Z,0.00
2018-05-21T02:24:57.103Z,0.00
2018-05-21T02:25:57.015Z,0.00
2018-05-21T02:26:57.059Z,0.00
2018-05-21T02:27:56.872Z,0.00
2018-05-21T02:28:56.805Z,0.00
2018-05-21T02:29:56.728Z,0.00
2018-05-21T02:30:56.661Z,0.00
2018-05-21T02:31:56.582Z,0.00
2018-05-21T02:32:56.518Z,0.00
2018-05-21T02:33:56.441Z,0.00
2018-05-21T02:34:56.368Z,0.00
2018-05-21T02:35:56.293Z,0.00
2018-05-21T02:36:56.292Z,0.00
2018-05-21T02:37:56.156Z,0.00
2018-05-21T02:38:56.078Z,0.00
2018-05-21T02:39:56.008Z,0.00
2018-05-21T02:40:55.934Z,0.00
2018-05-21T02:41:55.866Z,0.00
2018-05-21T02:42:55.794Z,0.00
2018-05-21T02:43:55.719Z,0.00
2018-05-21T02:44:55.647Z,0.00
2018-05-21T02:45:55.568Z,0.00
2018-05-21T02:46:55.510Z,0.00
2018-05-21T02:47:55.430Z,0.00
2018-05-21T02:48:55.369Z,0.00
2018-05-21T02:49:55.286Z,0.00
2018-05-21T02:50:55.229Z,0.00
2018-05-21T02:51:55.141Z,0.00
2018-05-21T02:52:55.079Z,0.00
2018-05-21T02:53:55.002Z,0.00
2018-05-21T02:54:54.931Z,0.00
2018-05-21T02:55:54.853Z,0.00
2018-05-21T02:56:54.781Z,0.00
2018-05-21T02:57:54.705Z,0.00
2018-05-21T02:58:54.644Z,0.00
2018-05-21T02:59:54.569Z,0.00
2018-05-21T03:00:54.492Z,0.00
2018-05-21T03:01:54.420Z,0.00
2018-05-21T03:02:54.345Z,0.00
2018-05-21T03:03:54.281Z,0.00
2018-05-21T03:04:54.212Z,4.00
2018-05-21T03:05:54.146Z,0.00
2018-05-21T03:06:54.062Z,0.00
2018-05-21T03:07:53.997Z,0.00
2018-05-21T03:08:53.922Z,4.00
2018-05-21T03:09:53.844Z,4.00
2018-05-21T03:10:53.793Z,0.00
2018-05-21T03:11:53.704Z,4.00
2018-05-21T03:12:53.630Z,4.00
2018-05-21T03:13:53.558Z,4.00
2018-05-21T03:14:53.503Z,8.00
2018-05-21T03:15:53.411Z,8.00
2018-05-21T03:16:53.341Z,8.00
2018-05-21T03:17:53.267Z,8.00
2018-05-21T03:18:53.185Z,8.00
2018-05-21T03:19:53.114Z,12.00
2018-05-21T03:20:53.051Z,12.00
2018-05-21T03:21:52.979Z,12.00
2018-05-21T03:22:52.895Z,16.00
2018-05-21T03:23:52.825Z,16.00
2018-05-21T03:24:52.763Z,16.00
2018-05-21T03:25:52.687Z,16.00
2018-05-21T03:26:52.622Z,20.00
2018-05-21T03:27:52.571Z,20.00
2018-05-21T03:28:52.474Z,24.00
2018-05-21T03:29:52.410Z,28.00
2018-05-21T03:30:52.326Z,32.00
2018-05-21T03:31:52.259Z,32.00
2018-05-21T03:32:52.183Z,36.00
2018-05-21T03:33:52.109Z,40.00
2018-05-21T03:34:52.040Z,48.00
2018-05-21T03:35:51.962Z,48.00
2018-05-21T03:36:51.890Z,56.00
2018-05-21T03:37:51.860Z,64.00
2018-05-21T03:38:51.740Z,68.00
2018-05-21T03:39:51.673Z,80.00
2018-05-21T03:40:51.601Z,88.00
2018-05-21T03:41:51.531Z,96.00
2018-05-21T03:42:51.454Z,104.00
2018-05-21T03:43:51.386Z,108.00
2018-05-21T03:44:51.313Z,116.00
2018-05-21T03:45:51.236Z,124.00
2018-05-21T03:46:51.168Z,132.00
2018-05-21T03:47:51.088Z,136.00
2018-05-21T03:48:51.025Z,148.00
2018-05-21T03:49:50.952Z,156.00
2018-05-21T03:50:50.882Z,164.00
2018-05-21T03:51:50.806Z,172.00
2018-05-21T03:52:50.739Z,180.00
2018-05-21T03:53:50.660Z,196.00
2018-05-21T03:54:50.617Z,200.00
2018-05-21T03:55:50.518Z,212.00
2018-05-21T03:56:50.444Z,220.00
2018-05-21T03:57:50.372Z,232.00
2018-05-21T03:58:50.302Z,244.00
2018-05-21T03:59:50.241Z,252.00
2018-05-21T04:00:50.154Z,264.00
2018-05-21T04:01:50.099Z,276.00
2018-05-21T04:02:50.011Z,288.00
2018-05-21T04:03:49.939Z,292.00
2018-05-21T04:04:49.871Z,304.00
2018-05-21T04:05:49.797Z,320.00
2018-05-21T04:06:49.723Z,332.00
2018-05-21T04:07:49.651Z,348.00
2018-05-21T04:08:49.579Z,364.00
2018-05-21T04:09:49.501Z,380.00
2018-05-21T04:10:49.460Z,396.00
2018-05-21T04:11:49.370Z,412.00
2018-05-21T04:12:49.305Z,428.00
2018-05-21T04:13:49.216Z,444.00
2018-05-21T04:14:49.149Z,452.00
2018-05-21T04:15:49.073Z,464.00
2018-05-21T04:16:49.000Z,472.00
2018-05-21T04:17:48.931Z,476.00
2018-05-21T04:18:48.937Z,476.00
2018-05-21T04:19:48.789Z,484.00
2018-05-21T04:20:48.712Z,492.00
2018-05-21T04:21:48.640Z,504.00
2018-05-21T04:22:48.569Z,512.00
2018-05-21T04:23:48.495Z,524.00
2018-05-21T04:24:48.421Z,532.00
2018-05-21T04:25:48.352Z,536.00
2018-05-21T04:26:48.276Z,544.00
2018-05-21T04:27:48.201Z,552.00
2018-05-21T04:28:48.137Z,556.00
2018-05-21T04:29:48.061Z,568.00
2018-05-21T04:30:47.996Z,576.00
2018-05-21T04:31:47.918Z,588.00
2018-05-21T04:32:47.856Z,608.00
2018-05-21T04:33:47.772Z,624.00
2018-05-21T04:34:47.702Z,644.00
2018-05-21T04:35:47.629Z,652.00
2018-05-21T04:36:47.558Z,672.00
2018-05-21T04:37:47.486Z,696.00
2018-05-21T04:38:47.416Z,720.00
2018-05-21T04:39:47.355Z,736.00
2018-05-21T04:40:47.268Z,748.00
2018-05-21T04:41:47.205Z,748.00
2018-05-21T04:42:47.122Z,736.00
2018-05-21T04:43:47.053Z,712.00
2018-05-21T04:44:46.979Z,692.00
2018-05-21T04:45:46.908Z,676.00
2018-05-21T04:46:46.841Z,664.00
2018-05-21T04:47:46.763Z,676.00
2018-05-21T04:48:46.699Z,688.00
2018-05-21T04:49:46.625Z,704.00
2018-05-21T04:50:46.553Z,712.00
2018-05-21T04:51:46.562Z,712.00
2018-05-21T04:52:46.406Z,720.00
2018-05-21T04:53:46.356Z,724.00
2018-05-21T04:54:46.267Z,720.00
2018-05-21T04:55:46.190Z,716.00
2018-05-21T04:56:46.116Z,712.00
2018-05-21T04:57:46.048Z,712.00
2018-05-21T04:58:45.969Z,712.00
2018-05-21T04:59:45.903Z,708.00
2018-05-21T05:00:45.829Z,696.00
2018-05-21T05:01:45.759Z,700.00
2018-05-21T05:02:45.686Z,696.00
2018-05-21T05:03:45.619Z,704.00
2018-05-21T05:04:45.544Z,708.00
2018-05-21T05:05:45.468Z,716.00
2018-05-21T05:06:45.397Z,728.00
2018-05-21T05:07:45.325Z,744.00
2018-05-21T05:08:45.263Z,760.00
2018-05-21T05:09:45.212Z,796.00
2018-05-21T05:10:45.140Z,844.00
2018-05-21T05:11:45.041Z,896.00
2018-05-21T05:12:44.970Z,944.00
2018-05-21T05:13:44.896Z,984.00
2018-05-21T05:14:44.829Z,1060.00
2018-05-21T05:15:44.747Z,1108.00
2018-05-21T05:16:44.682Z,1104.00
2018-05-21T05:17:44.615Z,1056.00
2018-05-21T05:18:44.534Z,1012.00
2018-05-21T05:19:44.471Z,984.00
2018-05-21T05:20:44.411Z,960.00
2018-05-21T05:21:44.325Z,936.00
2018-05-21T05:22:44.248Z,904.00
2018-05-21T05:23:44.175Z,888.00
2018-05-21T05:24:44.111Z,892.00
2018-05-21T05:25:44.044Z,880.00
2018-05-21T05:26:44.032Z,872.00
2018-05-21T05:27:43.888Z,864.00
2018-05-21T05:28:43.829Z,856.00
2018-05-21T05:29:43.748Z,868.00
2018-05-21T05:30:43.686Z,880.00
2018-05-21T05:31:43.603Z,892.00
2018-05-21T05:32:43.536Z,904.00
2018-05-21T05:33:43.452Z,916.00
2018-05-21T05:34:43.389Z,932.00
2018-05-21T05:35:43.314Z,952.00
2018-05-21T05:36:43.255Z,984.00
2018-05-21T05:37:43.170Z,1036.00
2018-05-21T05:38:43.104Z,1100.00
2018-05-21T05:39:43.022Z,1156.00
2018-05-21T05:40:42.965Z,1196.00
2018-05-21T05:41:42.881Z,1232.00
2018-05-21T05:42:42.808Z,1228.00
2018-05-21T05:43:42.744Z,1268.00
2018-05-21T05:44:42.682Z,1392.00
2018-05-21T05:45:42.599Z,1540.00
2018-05-21T05:46:42.528Z,1704.00
2018-05-21T05:47:42.451Z,1836.00
2018-05-21T05:48:42.422Z,2032.00
2018-05-21T05:49:42.316Z,2208.00
2018-05-21T05:50:42.238Z,2344.00
2018-05-21T05:51:42.173Z,2404.00
2018-05-21T05:52:42.183Z,2392.00
2018-05-21T05:53:42.035Z,2344.00
2018-05-21T05:54:41.954Z,2364.00
2018-05-21T05:55:41.885Z,2476.00
2018-05-21T05:56:41.812Z,2548.00
2018-05-21T05:57:41.737Z,2492.00
2018-05-21T05:58:41.668Z,2484.00
2018-05-21T05:59:41.599Z,2468.00
2018-05-21T06:00:41.525Z,2480.00
2018-05-21T06:01:41.454Z,2436.00
2018-05-21T06:02:41.384Z,2420.00
2018-05-21T06:03:41.392Z,2440.00
2018-05-21T06:04:41.238Z,2400.00
2018-05-21T06:05:41.166Z,2348.00
2018-05-21T06:06:41.132Z,2344.00
2018-05-21T06:07:41.050Z,2252.00
2018-05-21T06:08:41.019Z,2024.00
2018-05-21T06:09:40.883Z,1876.00
2018-05-21T06:10:40.811Z,1832.00
2018-05-21T06:11:40.742Z,1764.00
2018-05-21T06:12:40.669Z,1800.00
2018-05-21T06:13:40.652Z,1720.00
2018-05-21T06:14:40.528Z,1736.00
2018-05-21T06:15:40.453Z,1768.00
2018-05-21T06:16:40.394Z,1752.00
2018-05-21T06:17:40.314Z,1756.00
2018-05-21T06:18:40.246Z,1724.00
2018-05-21T06:19:40.206Z,1704.00
2018-05-21T06:20:40.111Z,1712.00
2018-05-21T06:21:40.043Z,1712.00
2018-05-21T06:22:39.969Z,1768.00
2018-05-21T06:23:39.886Z,1772.00
2018-05-21T06:24:39.818Z,1812.00
2018-05-21T06:25:39.751Z,1796.00
2018-05-21T06:26:39.687Z,1768.00
2018-05-21T06:27:39.611Z,1780.00
2018-05-21T06:28:39.539Z,1772.00
2018-05-21T06:29:39.469Z,1744.00
2018-05-21T06:30:39.406Z,1688.00
2018-05-21T06:31:39.329Z,1648.00
2018-05-21T06:32:39.257Z,1700.00
2018-05-21T06:33:39.188Z,1676.00
2018-05-21T06:34:39.222Z,1700.00
2018-05-21T06:35:39.043Z,1748.00
2018-05-21T06:36:39.014Z,1740.00
2018-05-21T06:37:38.907Z,1688.00
2018-05-21T06:38:38.839Z,1728.00
2018-05-21T06:39:38.767Z,1748.00
2018-05-21T06:40:38.693Z,1816.00
2018-05-21T06:41:38.631Z,1880.00
2018-05-21T06:42:38.556Z,1812.00
2018-05-21T06:43:38.480Z,1624.00
2018-05-21T06:44:38.416Z,1844.00
2018-05-21T06:45:38.339Z,1864.00
2018-05-21T06:46:38.273Z,1860.00
2018-05-21T06:47:38.273Z,1876.00
2018-05-21T06:48:38.131Z,1904.00
2018-05-21T06:49:38.059Z,1884.00
2018-05-21T06:50:37.993Z,1920.00
2018-05-21T06:51:37.926Z,1904.00
2018-05-21T06:52:37.852Z,1928.00
2018-05-21T06:53:37.778Z,1928.00
2018-05-21T06:54:37.711Z,1976.00
2018-05-21T06:55:37.644Z,2008.00
2018-05-21T06:56:37.585Z,2000.00
2018-05-21T06:57:37.502Z,2040.00
2018-05-21T06:58:37.438Z,1956.00
2018-05-21T06:59:37.361Z,2056.00
2018-05-21T07:00:37.295Z,2092.00
2018-05-21T07:01:37.219Z,2096.00
2018-05-21T07:02:37.150Z,2100.00
2018-05-21T07:03:37.075Z,2156.00
2018-05-21T07:04:37.015Z,2148.00
2018-05-21T07:05:36.939Z,2172.00
2018-05-21T07:06:36.869Z,2108.00
2018-05-21T07:07:36.807Z,2196.00
2018-05-21T07:08:36.727Z,2144.00
2018-05-21T07:09:36.659Z,2196.00
2018-05-21T07:10:36.595Z,2272.00
2018-05-21T07:11:36.527Z,2152.00
2018-05-21T07:12:36.457Z,2160.00
2018-05-21T07:13:36.387Z,2104.00
2018-05-21T07:14:36.312Z,2136.00
2018-05-21T07:15:36.241Z,2196.00
2018-05-21T07:16:36.182Z,2212.00
2018-05-21T07:17:36.101Z,2184.00
2018-05-21T07:18:36.034Z,2136.00
2018-05-21T07:19:35.967Z,2224.00
2018-05-21T07:20:35.901Z,2260.00
2018-05-21T07:21:35.821Z,2272.00
2018-05-21T07:22:35.757Z,2240.00
2018-05-21T07:23:35.687Z,2244.00
2018-05-21T07:24:35.621Z,2244.00
2018-05-21T07:25:35.548Z,2260.00
2018-05-21T07:26:35.483Z,2328.00
2018-05-21T07:27:35.406Z,2376.00
2018-05-21T07:28:35.348Z,2384.00
2018-05-21T07:29:35.270Z,2376.00
2018-05-21T07:30:35.206Z,2396.00
2018-05-21T07:31:35.245Z,2368.00
2018-05-21T07:32:35.065Z,2380.00
2018-05-21T07:33:34.995Z,2416.00
2018-05-21T07:34:34.929Z,2420.00
2018-05-21T07:35:34.855Z,2492.00
2018-05-21T07:36:34.794Z,2528.00
2018-05-21T07:37:34.723Z,2552.00
2018-05-21T07:38:34.649Z,2580.00
2018-05-21T07:39:34.582Z,2580.00
2018-05-21T07:40:34.511Z,2620.00
2018-05-21T07:41:34.444Z,2680.00
2018-05-21T07:42:34.375Z,2668.00
2018-05-21T07:43:34.306Z,2656.00
2018-05-21T07:44:34.238Z,2640.00
2018-05-21T07:45:34.163Z,2608.00
2018-05-21T07:46:34.101Z,2572.00
2018-05-21T07:47:34.028Z,2684.00
2018-05-21T07:48:33.962Z,2640.00
2018-05-21T07:49:33.895Z,2616.00
2018-05-21T07:50:33.819Z,2692.00
2018-05-21T07:51:33.780Z,2720.00
2018-05-21T07:52:33.681Z,2608.00
2018-05-21T07:53:33.614Z,2580.00
2018-05-21T07:54:33.547Z,2664.00
2018-05-21T07:55:33.478Z,2644.00
2018-05-21T07:56:33.404Z,2676.00
2018-05-21T07:57:33.338Z,2652.00
2018-05-21T07:58:33.270Z,2688.00
2018-05-21T07:59:33.204Z,2672.00
2018-05-21T08:00:33.133Z,2684.00
2018-05-21T08:01:33.064Z,2696.00
2018-05-21T08:02:32.996Z,2752.00
2018-05-21T08:03:32.930Z,2788.00
2018-05-21T08:04:32.860Z,2800.00
2018-05-21T08:05:32.791Z,2788.00
2018-05-21T08:06:32.720Z,2892.00
2018-05-21T08:07:32.654Z,3028.00
2018-05-21T08:08:32.576Z,3068.00
2018-05-21T08:09:32.521Z,3124.00
2018-05-21T08:10:32.447Z,3208.00
2018-05-21T08:11:32.377Z,3092.00
2018-05-21T08:12:32.350Z,3088.00
2018-05-21T08:13:32.243Z,3124.00
2018-05-21T08:14:32.218Z,3108.00
2018-05-21T08:15:32.109Z,3124.00
2018-05-21T08:16:32.039Z,3264.00
2018-05-21T08:17:31.975Z,3288.00
2018-05-21T08:18:31.902Z,3196.00
2018-05-21T08:19:31.832Z,3328.00
2018-05-21T08:20:31.764Z,3448.00
2018-05-21T08:21:31.703Z,3504.00
2018-05-21T08:22:31.625Z,3700.00
2018-05-21T08:23:31.553Z,3716.00
2018-05-21T08:24:31.495Z,3660.00
2018-05-21T08:25:31.423Z,3896.00
2018-05-21T08:26:31.364Z,4164.00
2018-05-21T08:27:31.279Z,4400.00
2018-05-21T08:28:31.225Z,4528.00
2018-05-21T08:29:31.144Z,4668.00
2018-05-21T08:30:31.085Z,4792.00
2018-05-21T08:31:31.024Z,4544.00
2018-05-21T08:32:30.957Z,4936.00
2018-05-21T08:33:30.877Z,4928.00
2018-05-21T08:34:30.813Z,4260.00
2018-05-21T08:35:30.749Z,4528.00
2018-05-21T08:36:30.674Z,4412.00
2018-05-21T08:37:30.607Z,4340.00
2018-05-21T08:38:30.543Z,4752.00
2018-05-21T08:39:30.473Z,4376.00
2018-05-21T08:40:30.404Z,4424.00
2018-05-21T08:41:30.342Z,4420.00
2018-05-21T08:42:30.267Z,5376.00
2018-05-21T08:43:30.208Z,4584.00
2018-05-21T08:44:30.135Z,5864.00
2018-05-21T08:45:30.070Z,7496.00
2018-05-21T08:46:30.000Z,1412.00
2018-05-21T08:47:29.936Z,16800.00
2018-05-21T08:48:29.881Z,18464.00
2018-05-21T08:49:29.797Z,18944.00
2018-05-21T08:50:29.730Z,6248.00
2018-05-21T08:51:29.661Z,5132.00
2018-05-21T08:52:29.601Z,23648.00
2018-05-21T08:53:29.531Z,5304.00
2018-05-21T08:54:29.464Z,62016.00
2018-05-21T08:55:29.400Z,26048.00
2018-05-21T08:56:29.387Z,70240.00
2018-05-21T08:57:29.263Z,41888.00
2018-05-21T08:58:29.195Z,71552.00
2018-05-21T08:59:29.142Z,55712.00
2018-05-21T09:00:29.069Z,35616.00
2018-05-21T09:01:28.998Z,7056.00
2018-05-21T09:02:28.932Z,6484.00
2018-05-21T09:03:28.866Z,6344.00
2018-05-21T09:04:28.802Z,20796.00
2018-05-21T09:05:28.747Z,8956.00
2018-05-21T09:06:28.666Z,26400.00
2018-05-21T09:07:28.605Z,8100.00
2018-05-21T09:08:28.540Z,16544.00
2018-05-21T09:09:28.474Z,75840.00
2018-05-21T09:10:28.428Z,19552.00
2018-05-21T09:11:28.344Z,75456.00
2018-05-21T09:12:28.306Z,73920.00
2018-05-21T09:13:28.220Z,73952.00
2018-05-21T09:14:28.150Z,51872.00
2018-05-21T09:15:28.088Z,56768.00
2018-05-21T09:16:28.131Z,72480.00
2018-05-21T09:17:27.958Z,71616.00
2018-05-21T09:18:27.895Z,71552.00
2018-05-21T09:19:27.831Z,74912.00
2018-05-21T09:20:27.765Z,76640.00
2018-05-21T09:21:27.707Z,75104.00
2018-05-21T09:22:27.647Z,76128.00
2018-05-21T09:23:27.580Z,75968.00
2018-05-21T09:24:27.518Z,75232.00
2018-05-21T09:25:27.459Z,75264.00
2018-05-21T09:26:27.399Z,77760.00
2018-05-21T09:27:27.366Z,77536.00
2018-05-21T09:28:27.279Z,79232.00
2018-05-21T09:29:27.220Z,78784.00
2018-05-21T09:30:27.163Z,75744.00
2018-05-21T09:31:27.187Z,72448.00
2018-05-21T09:32:27.050Z,79488.00
2018-05-21T09:33:26.985Z,78848.00
2018-05-21T09:34:26.939Z,78720.00
2018-05-21T09:35:26.867Z,60864.00
2018-05-21T09:36:26.808Z,41344.00
2018-05-21T09:37:26.771Z,39904.00
2018-05-21T09:38:26.695Z,47104.00
2018-05-21T09:39:26.637Z,68832.00
2018-05-21T09:40:26.576Z,77536.00
2018-05-21T09:41:26.527Z,73376.00
2018-05-21T09:42:26.476Z,78752.00
2018-05-21T09:43:26.409Z,77312.00
2018-05-21T09:44:26.355Z,74720.00
2018-05-21T09:45:26.294Z,69504.00
2018-05-21T09:46:26.239Z,72032.00
2018-05-21T09:47:26.186Z,71808.00
2018-05-21T09:48:26.124Z,61024.00
2018-05-21T09:49:26.066Z,27232.00
2018-05-21T09:50:26.011Z,18528.00
2018-05-21T09:51:25.956Z,15440.00
2018-05-21T09:52:25.894Z,12592.00
2018-05-21T09:53:25.845Z,10904.00
2018-05-21T09:54:25.786Z,11536.00
2018-05-21T09:55:25.729Z,12284.00
2018-05-21T09:56:25.664Z,11728.00
2018-05-21T09:57:25.606Z,11188.00
2018-05-21T09:58:25.547Z,11804.00
2018-05-21T09:59:25.491Z,11696.00
2018-05-21T10:00:25.430Z,19936.00
2018-05-21T10:01:25.368Z,30912.00
2018-05-21T10:02:25.306Z,35168.00
2018-05-21T10:03:25.267Z,17408.00
2018-05-21T10:04:25.188Z,14396.00
2018-05-21T10:05:25.127Z,14996.00
2018-05-21T10:06:25.068Z,16772.00
2018-05-21T10:07:25.006Z,30848.00
2018-05-21T10:08:24.941Z,20672.00
2018-05-21T10:09:24.899Z,14148.00
2018-05-21T10:10:24.820Z,13804.00
2018-05-21T10:11:24.769Z,16784.00
2018-05-21T10:12:24.711Z,27072.00
2018-05-21T10:13:24.639Z,73824.00
2018-05-21T10:14:24.574Z,77120.00
2018-05-21T10:15:24.515Z,73312.00
2018-05-21T10:16:24.456Z,74816.00
2018-05-21T10:17:24.385Z,80928.00
2018-05-21T10:18:24.333Z,82272.00
2018-05-21T10:19:24.277Z,76128.00
2018-05-21T10:20:24.202Z,81728.00
2018-05-21T10:21:24.151Z,80160.00
2018-05-21T10:22:24.085Z,79584.00
2018-05-21T10:23:24.022Z,76160.00
2018-05-21T10:24:23.967Z,78560.00
2018-05-21T10:25:23.903Z,75008.00
2018-05-21T10:26:23.879Z,82240.00
2018-05-21T10:27:23.786Z,58688.00
2018-05-21T10:28:23.737Z,82976.00
2018-05-21T10:29:23.674Z,82496.00
2018-05-21T10:30:23.616Z,82848.00
2018-05-21T10:31:23.553Z,74016.00
2018-05-21T10:32:23.502Z,80064.00
2018-05-21T10:33:23.445Z,74816.00
2018-05-21T10:34:23.382Z,19840.00
2018-05-21T10:35:23.339Z,19120.00
2018-05-21T10:36:23.268Z,24352.00
2018-05-21T10:37:23.330Z,36160.00
2018-05-21T10:38:23.154Z,36192.00
2018-05-21T10:39:23.093Z,12180.00
2018-05-21T10:40:23.035Z,21920.00
2018-05-21T10:41:22.982Z,18272.00
2018-05-21T10:42:22.924Z,55424.00
2018-05-21T10:43:22.906Z,11360.00
2018-05-21T10:44:22.805Z,11712.00
2018-05-21T10:45:22.748Z,50432.00
2018-05-21T10:46:22.685Z,6156.00
2018-05-21T10:47:22.637Z,62912.00
2018-05-21T10:48:22.571Z,4256.00
2018-05-21T10:49:22.508Z,7560.00
2018-05-21T10:50:22.462Z,68960.00
2018-05-21T10:51:22.412Z,7872.00
2018-05-21T10:52:22.336Z,5668.00
2018-05-21T10:53:22.281Z,5440.00
2018-05-21T10:54:22.207Z,9408.00
2018-05-21T10:55:22.153Z,75936.00
2018-05-21T10:56:22.126Z,6060.00
2018-05-21T10:57:22.027Z,4300.00
2018-05-21T10:58:21.969Z,7832.00
2018-05-21T10:59:21.909Z,5368.00
2018-05-21T11:00:21.841Z,16540.00
2018-05-21T11:01:21.783Z,6368.00
2018-05-21T11:02:21.742Z,7228.00
2018-05-21T11:03:21.659Z,11944.00
2018-05-21T11:04:21.604Z,11420.00
2018-05-21T11:05:21.533Z,29984.00
2018-05-21T11:06:21.469Z,48576.00
2018-05-21T11:07:21.413Z,8100.00
2018-05-21T11:08:21.350Z,82528.00
2018-05-21T11:09:21.289Z,18244.00
2018-05-21T11:10:21.244Z,9304.00
2018-05-21T11:11:21.162Z,9452.00
2018-05-21T11:12:21.097Z,11048.00
2018-05-21T11:13:21.044Z,9148.00
2018-05-21T11:14:20.979Z,9512.00
2018-05-21T11:15:20.912Z,11584.00
2018-05-21T11:16:20.848Z,11764.00
2018-05-21T11:17:20.791Z,19008.00
2018-05-21T11:18:20.721Z,14068.00
2018-05-21T11:19:20.663Z,19072.00
2018-05-21T11:20:20.649Z,36960.00
2018-05-21T11:21:20.541Z,14700.00
2018-05-21T11:22:20.478Z,53024.00
2018-05-21T11:23:20.410Z,15616.00
2018-05-21T11:24:20.346Z,36224.00
2018-05-21T11:25:20.281Z,8348.00
2018-05-21T11:26:20.229Z,65184.00
2018-05-21T11:27:20.157Z,26176.00
2018-05-21T11:28:20.096Z,21088.00
2018-05-21T11:29:20.033Z,33504.00
2018-05-21T11:30:19.975Z,17920.00
2018-05-21T11:31:19.908Z,20096.00
2018-05-21T11:32:19.854Z,13016.00
2018-05-21T11:33:19.779Z,24544.00
2018-05-21T11:34:19.720Z,12916.00
2018-05-21T11:35:19.666Z,11604.00
2018-05-21T11:36:19.594Z,14884.00
2018-05-21T11:37:19.541Z,12260.00
2018-05-21T11:38:19.487Z,10944.00
2018-05-21T11:39:19.416Z,10936.00
2018-05-21T11:40:19.341Z,10584.00
2018-05-21T11:41:19.288Z,10492.00
2018-05-21T11:42:19.216Z,10532.00
2018-05-21T11:43:19.161Z,10520.00
2018-05-21T11:44:19.090Z,12960.00
2018-05-21T11:45:19.034Z,10636.00
2018-05-21T11:46:19.058Z,11240.00
2018-05-21T11:47:18.905Z,11084.00
2018-05-21T11:48:18.862Z,10880.00
2018-05-21T11:49:18.775Z,11120.00
2018-05-21T11:50:18.714Z,16328.00
2018-05-21T11:51:18.669Z,11612.00
2018-05-21T11:52:18.586Z,17248.00
2018-05-21T11:53:18.533Z,14816.00
2018-05-21T11:54:18.465Z,13324.00
2018-05-21T11:55:18.415Z,20768.00
2018-05-21T11:56:18.368Z,11116.00
2018-05-21T11:57:18.312Z,15136.00
2018-05-21T11:58:18.228Z,13496.00
2018-05-21T11:59:18.159Z,10376.00
2018-05-21T12:00:18.094Z,27264.00
2018-05-21T12:01:18.026Z,8784.00
2018-05-21T12:02:17.959Z,20448.00
2018-05-21T12:03:17.887Z,9144.00
2018-05-21T12:04:17.838Z,9084.00
2018-05-21T12:05:17.764Z,9212.00
2018-05-21T12:06:17.702Z,10680.00
2018-05-21T12:07:17.642Z,12792.00
2018-05-21T12:08:17.571Z,11352.00
2018-05-21T12:09:17.505Z,6296.00
2018-05-21T12:10:17.445Z,6260.00
2018-05-21T12:11:17.381Z,6420.00
2018-05-21T12:12:17.324Z,6588.00
2018-05-21T12:13:17.268Z,6416.00
2018-05-21T12:14:17.190Z,6772.00
2018-05-21T12:15:17.130Z,7060.00
2018-05-21T12:16:17.061Z,7028.00
2018-05-21T12:17:16.996Z,35552.00
2018-05-21T12:18:16.935Z,6556.00
2018-05-21T12:19:16.867Z,6376.00
2018-05-21T12:20:16.807Z,6972.00
2018-05-21T12:21:16.753Z,8920.00
2018-05-21T12:22:16.681Z,7196.00